createdAt,value
2019-05-17T00:03:47.169Z,1.73
2019-05-17T00:08:07.739Z,1.77
2019-05-17T00:12:27.118Z,1.30
2019-05-17T00:16:46.949Z,1.90
2019-05-17T00:21:07.547Z,1.53
2019-05-17T00:25:27.207Z,1.57
2019-05-17T00:29:46.517Z,1.70
2019-05-17T00:34:07.315Z,1.60
2019-05-17T00:38:27.421Z,1.40
2019-05-17T00:42:46.687Z,1.90
2019-05-17T00:47:06.502Z,1.40
2019-05-17T00:51:27.414Z,1.80
2019-05-17T00:55:46.690Z,1.70
2019-05-17T01:00:05.421Z,1.73
2019-05-17T01:04:23.759Z,1.87
2019-05-17T01:08:41.787Z,1.97
2019-05-17T01:13:00.131Z,1.80
2019-05-17T01:17:18.204Z,1.63
2019-05-17T01:21:36.772Z,2.00
2019-05-17T01:25:56.714Z,1.63
2019-05-17T01:30:17.258Z,1.83
2019-05-17T01:34:37.407Z,1.60
2019-05-17T01:38:57.417Z,1.70
2019-05-17T01:43:16.540Z,1.87
2019-05-17T01:47:36.593Z,1.67
2019-05-17T01:51:56.778Z,1.80
2019-05-17T01:56:16.831Z,1.70
2019-05-17T02:00:37.292Z,1.87
2019-05-17T02:04:56.858Z,1.70
2019-05-17T02:09:20.479Z,2.33
2019-05-17T02:13:34.200Z,1.70
2019-05-17T02:17:52.541Z,1.70
2019-05-17T02:22:10.845Z,1.70
2019-05-17T02:26:28.851Z,1.80
2019-05-17T02:30:47.068Z,2.00
2019-05-17T02:35:06.322Z,1.57
2019-05-17T02:39:24.372Z,2.13
2019-05-17T02:43:43.373Z,1.80
2019-05-17T02:48:03.585Z,1.80
2019-05-17T02:52:23.016Z,1.90
2019-05-17T02:56:43.545Z,1.50
2019-05-17T03:01:03.692Z,1.60
2019-05-17T03:05:23.233Z,1.83
2019-05-17T03:09:43.140Z,1.67
2019-05-17T03:14:04.081Z,1.70
2019-05-17T03:18:22.863Z,1.63
2019-05-17T03:22:44.122Z,2.00
2019-05-17T03:27:03.047Z,1.80
2019-05-17T03:31:26.585Z,1.30
2019-05-17T03:35:45.945Z,1.93
2019-05-17T03:40:04.601Z,1.50
2019-05-17T03:44:22.589Z,1.57
2019-05-17T03:48:43.505Z,1.80
2019-05-17T03:53:02.436Z,1.73
2019-05-17T03:57:23.820Z,1.90
2019-05-17T04:01:43.302Z,2.40
2019-05-17T04:06:03.581Z,2.80
2019-05-17T04:10:22.796Z,2.67
2019-05-17T04:14:42.783Z,2.03
2019-05-17T04:19:02.796Z,2.20
2019-05-17T04:23:23.014Z,2.00
2019-05-17T04:27:43.162Z,3.03
2019-05-17T04:31:59.200Z,2.90
2019-05-17T04:36:17.619Z,2.70
2019-05-17T04:40:36.081Z,2.50
2019-05-17T04:44:54.300Z,3.13
2019-05-17T04:49:13.816Z,2.07
2019-05-17T04:53:33.064Z,2.37
2019-05-17T04:57:52.969Z,2.00
2019-05-17T05:02:13.173Z,2.80
2019-05-17T05:06:33.153Z,2.60
2019-05-17T05:11:08.633Z,2.57
2019-05-17T05:15:44.932Z,2.33
2019-05-17T05:20:22.165Z,2.27
2019-05-17T05:24:57.859Z,2.70
2019-05-17T05:29:33.598Z,3.00
2019-05-17T05:34:09.431Z,2.83
2019-05-17T05:38:44.936Z,3.00
2019-05-17T05:43:22.600Z,3.53
2019-05-17T05:48:01.648Z,3.93
2019-05-17T05:52:37.278Z,4.60
2019-05-17T05:57:12.836Z,4.67
2019-05-17T06:01:32.639Z,4.80
2019-05-17T06:05:52.552Z,4.63
2019-05-17T06:10:13.105Z,4.87
2019-05-17T06:14:32.435Z,4.90
2019-05-17T06:18:51.647Z,5.23
2019-05-17T06:23:12.374Z,4.77
2019-05-17T06:27:32.121Z,5.07
2019-05-17T06:31:51.847Z,4.97
2019-05-17T06:36:13.710Z,5.67
2019-05-17T06:40:32.339Z,4.93
2019-05-17T06:44:52.433Z,5.60
2019-05-17T06:49:11.758Z,5.17
2019-05-17T06:53:32.139Z,5.87
2019-05-17T06:57:49.717Z,5.20
2019-05-17T07:02:10.365Z,4.70
2019-05-17T07:06:29.738Z,4.90
2019-05-17T07:10:50.118Z,5.50
2019-05-17T07:15:10.584Z,4.80
2019-05-17T07:19:30.274Z,4.97
2019-05-17T07:23:49.892Z,4.40
2019-05-17T07:28:09.971Z,4.63
2019-05-17T07:32:29.740Z,4.10
2019-05-17T07:36:50.180Z,4.37
2019-05-17T07:41:09.940Z,4.40
2019-05-17T07:45:29.508Z,4.03
2019-05-17T07:49:49.357Z,4.43
2019-05-17T07:54:07.440Z,4.30
2019-05-17T07:58:25.788Z,4.23
2019-05-17T08:02:43.868Z,4.10
2019-05-17T08:07:01.928Z,3.57
2019-05-17T08:11:20.260Z,3.93
2019-05-17T08:15:39.768Z,4.13
2019-05-17T08:20:00.331Z,3.87
2019-05-17T08:24:19.607Z,3.93
2019-05-17T08:28:40.193Z,3.63
2019-05-17T08:33:00.753Z,3.40
2019-05-17T08:37:20.430Z,4.10
2019-05-17T08:41:40.500Z,4.00
2019-05-17T08:46:01.600Z,4.07
2019-05-17T08:50:20.092Z,3.70
2019-05-17T08:54:42.682Z,3.30
2019-05-17T08:59:00.704Z,4.40
2019-05-17T09:03:19.614Z,2.90
2019-05-17T09:07:55.244Z,3.70
2019-05-17T09:12:16.964Z,3.07
2019-05-17T09:16:35.586Z,3.30
2019-05-17T09:20:54.442Z,3.70
2019-05-17T09:25:18.934Z,3.60
2019-05-17T09:29:40.212Z,3.67
2019-05-17T09:34:00.263Z,3.17
2019-05-17T09:38:20.501Z,3.70
2019-05-17T09:42:41.115Z,3.57
2019-05-17T09:46:59.694Z,3.50
2019-05-17T09:51:19.598Z,3.20
2019-05-17T09:55:39.688Z,2.90
2019-05-17T10:00:00.126Z,3.00
2019-05-17T10:04:19.864Z,3.07
2019-05-17T10:08:39.414Z,3.10
2019-05-17T10:13:00.091Z,3.00
2019-05-17T10:17:21.019Z,3.43
2019-05-17T10:21:39.900Z,3.10
2019-05-17T10:25:59.562Z,3.30
2019-05-17T10:30:20.746Z,2.80
2019-05-17T10:34:40.129Z,2.97
2019-05-17T10:38:59.284Z,3.20
2019-05-17T10:43:17.403Z,2.83
2019-05-17T10:47:35.701Z,3.33
2019-05-17T10:51:54.113Z,2.83
2019-05-17T10:56:16.539Z,3.20
2019-05-17T11:00:35.001Z,3.07
2019-05-17T11:04:53.437Z,2.90
2019-05-17T11:09:11.478Z,3.30
2019-05-17T11:13:30.241Z,3.20
2019-05-17T11:17:48.337Z,2.80
2019-05-17T11:22:06.529Z,2.47
2019-05-17T11:26:24.657Z,2.50
2019-05-17T11:30:42.976Z,2.70
2019-05-17T11:35:01.568Z,3.00
2019-05-17T11:39:20.649Z,2.50
2019-05-17T11:43:38.761Z,2.50
2019-05-17T11:47:57.532Z,2.20
2019-05-17T11:52:15.620Z,2.40
2019-05-17T11:56:34.434Z,2.40
2019-05-17T12:00:53.448Z,2.20
2019-05-17T12:05:11.824Z,1.80
2019-05-17T12:09:37.367Z,2.00
2019-05-17T12:13:50.349Z,1.70
2019-05-17T12:18:08.514Z,1.90
2019-05-17T12:22:26.520Z,1.97
2019-05-17T12:26:47.455Z,2.23
2019-05-17T12:31:04.551Z,1.80
2019-05-17T12:35:23.382Z,1.87
2019-05-17T12:39:41.676Z,1.70
2019-05-17T12:44:00.188Z,2.00
2019-05-17T12:48:18.470Z,1.60
2019-05-17T12:52:36.857Z,1.30
2019-05-17T12:56:55.187Z,1.40
2019-05-17T13:01:13.329Z,1.43
2019-05-17T13:05:31.638Z,1.50
2019-05-17T13:09:49.920Z,1.90
2019-05-17T13:14:08.250Z,1.50
2019-05-17T13:18:27.503Z,1.50
2019-05-17T13:22:48.385Z,1.60
2019-05-17T13:27:07.180Z,1.43
2019-05-17T13:31:25.562Z,1.60
2019-05-17T13:35:48.306Z,1.50
2019-05-17T13:40:16.935Z,1.50
2019-05-17T13:44:41.004Z,1.33
2019-05-17T13:49:02.562Z,1.40
2019-05-17T13:53:21.527Z,1.77
2019-05-17T13:57:39.779Z,1.30
2019-05-17T14:01:57.875Z,1.50
2019-05-17T14:06:16.190Z,1.40
2019-05-17T14:10:34.335Z,1.47
2019-05-17T14:14:52.397Z,1.47
2019-05-17T14:19:10.680Z,1.43
2019-05-17T14:23:29.035Z,1.57
2019-05-17T14:27:48.585Z,1.63
2019-05-17T14:32:07.524Z,1.20
2019-05-17T14:36:25.946Z,1.20
2019-05-17T14:41:05.477Z,1.30
2019-05-17T14:45:04.551Z,1.20
2019-05-17T14:49:22.645Z,1.30
2019-05-17T14:53:40.737Z,1.00
2019-05-17T14:57:59.054Z,1.23
2019-05-17T15:02:17.122Z,1.10
2019-05-17T15:06:35.594Z,1.10
2019-05-17T15:10:53.684Z,1.10
2019-05-17T15:15:13.717Z,1.00
2019-05-17T15:19:31.899Z,0.73
2019-05-17T15:23:50.308Z,0.90
2019-05-17T15:28:10.316Z,0.70
2019-05-17T15:32:28.946Z,1.10
2019-05-17T15:36:47.088Z,1.50
2019-05-17T15:41:05.400Z,1.00
2019-05-17T15:45:23.697Z,1.03
2019-05-17T15:49:41.721Z,1.50
2019-05-17T15:53:59.772Z,1.40
2019-05-17T15:58:17.971Z,1.20
2019-05-17T16:02:36.226Z,1.20
2019-05-17T16:06:54.230Z,1.20
2019-05-17T16:11:12.648Z,1.20
2019-05-17T16:15:30.838Z,1.10
2019-05-17T16:19:49.002Z,1.40
2019-05-17T16:24:07.196Z,1.10
2019-05-17T16:28:25.785Z,1.00
2019-05-17T16:32:44.080Z,1.00
2019-05-17T16:37:02.162Z,1.00
2019-05-17T16:41:21.139Z,0.90
2019-05-17T16:45:39.217Z,0.80
2019-05-17T16:49:57.981Z,0.90
2019-05-17T16:54:16.272Z,0.80
2019-05-17T16:58:34.683Z,1.10
2019-05-17T17:02:52.782Z,0.80
2019-05-17T17:07:10.964Z,0.90
2019-05-17T17:11:29.152Z,0.70
2019-05-17T17:15:47.745Z,0.80
2019-05-17T17:20:07.397Z,1.00
2019-05-17T17:24:26.360Z,1.03
2019-05-17T17:28:44.950Z,1.03
2019-05-17T17:33:03.360Z,0.90
2019-05-17T17:37:21.468Z,0.80
2019-05-17T17:41:39.500Z,1.00
2019-05-17T17:45:58.077Z,0.90
2019-05-17T17:50:17.062Z,0.90
2019-05-17T17:54:36.096Z,1.00
2019-05-17T17:58:54.260Z,1.00
2019-05-17T18:03:12.445Z,1.03
2019-05-17T18:07:31.728Z,1.10
2019-05-17T18:11:50.372Z,1.10
2019-05-17T18:16:08.757Z,1.23
2019-05-17T18:20:27.084Z,1.10
2019-05-17T18:24:45.491Z,1.03
2019-05-17T18:29:03.578Z,1.10
2019-05-17T18:33:22.663Z,1.00
2019-05-17T18:37:40.755Z,1.10
2019-05-17T18:42:00.770Z,0.83
2019-05-17T18:46:19.025Z,0.97
2019-05-17T18:50:37.415Z,0.90
2019-05-17T18:54:55.488Z,1.10
2019-05-17T18:59:13.840Z,0.80
2019-05-17T19:03:32.197Z,0.80
2019-05-17T19:07:50.294Z,0.90
2019-05-17T19:12:08.714Z,1.00
2019-05-17T19:16:26.760Z,0.90
2019-05-17T19:20:44.938Z,1.00
2019-05-17T19:25:03.109Z,1.03
2019-05-17T19:29:21.176Z,1.07
2019-05-17T19:33:39.234Z,1.00
2019-05-17T19:37:57.726Z,0.90
2019-05-17T19:42:15.789Z,0.90
2019-05-17T19:46:33.979Z,0.73
2019-05-17T19:50:51.984Z,0.90
2019-05-17T19:55:10.708Z,0.93
2019-05-17T19:59:28.803Z,0.93
2019-05-17T20:03:47.143Z,1.00
2019-05-17T20:08:05.843Z,1.10
2019-05-17T20:12:24.983Z,0.93
2019-05-17T20:16:43.115Z,0.90
2019-05-17T20:21:01.385Z,0.97
2019-05-17T20:25:19.904Z,0.90
2019-05-17T20:29:38.070Z,0.90
2019-05-17T20:33:56.417Z,1.00
2019-05-17T20:38:14.580Z,1.00
2019-05-17T20:42:32.765Z,1.00
2019-05-17T20:46:51.449Z,0.93
2019-05-17T20:51:09.831Z,1.17
2019-05-17T20:55:27.959Z,1.20
2019-05-17T20:59:46.121Z,1.33
2019-05-17T21:04:04.814Z,1.00
2019-05-17T21:08:26.044Z,1.00
2019-05-17T21:12:43.432Z,1.00
2019-05-17T21:17:01.945Z,1.20
2019-05-17T21:21:20.735Z,1.10
2019-05-17T21:25:38.970Z,1.00
2019-05-17T21:29:57.212Z,1.10
2019-05-17T21:34:15.252Z,1.00
2019-05-17T21:38:33.472Z,0.87
2019-05-17T21:42:51.550Z,0.90
2019-05-17T21:47:09.574Z,0.70
2019-05-17T21:51:27.937Z,0.83
2019-05-17T21:55:46.295Z,1.00
2019-05-17T22:00:06.256Z,0.80
2019-05-17T22:04:27.138Z,0.93
2019-05-17T22:08:45.589Z,0.90
2019-05-17T22:13:03.761Z,0.80
2019-05-17T22:17:21.842Z,0.90
2019-05-17T22:21:40.387Z,0.97
2019-05-17T22:26:15.870Z,0.90
2019-05-17T22:30:51.545Z,0.80
2019-05-17T22:35:27.115Z,1.07
2019-05-17T22:40:03.188Z,1.00
2019-05-17T22:44:38.803Z,1.10
2019-05-17T22:48:56.821Z,0.90
2019-05-17T22:53:14.916Z,1.03
2019-05-17T22:57:33.332Z,1.10
2019-05-17T23:01:52.030Z,1.10
2019-05-17T23:06:10.204Z,1.03
2019-05-17T23:10:28.272Z,1.20
2019-05-17T23:14:46.812Z,1.00
2019-05-17T23:19:11.764Z,1.10
2019-05-17T23:23:30.544Z,1.00
2019-05-17T23:27:48.684Z,1.13
2019-05-17T23:32:07.349Z,1.00
2019-05-17T23:36:25.394Z,0.97
2019-05-17T23:40:43.442Z,1.00
2019-05-17T23:45:01.800Z,0.93
2019-05-17T23:49:20.840Z,0.83
2019-05-17T23:53:38.871Z,1.00
2019-05-17T23:57:56.927Z,1.00
